createdAt,value
2017-08-24T00:00:48.438Z,9.17
2017-08-24T00:01:48.437Z,9.19
2017-08-24T00:02:48.122Z,9.26
2017-08-24T00:03:48.424Z,9.23
2017-08-24T00:04:48.418Z,9.2
2017-08-24T00:05:48.405Z,9.31
2017-08-24T00:06:48.388Z,9.26
2017-08-24T00:07:48.377Z,9.27
2017-08-24T00:08:48.359Z,9.26
2017-08-24T00:09:48.364Z,9.1
2017-08-24T00:10:48.364Z,9.03
2017-08-24T00:11:48.343Z,9.17
2017-08-24T00:12:48.336Z,9.15
2017-08-24T00:14:02.624Z,9.2
2017-08-24T00:14:47.997Z,9.23
2017-08-24T00:16:02.197Z,9.19
2017-08-24T00:16:47.978Z,9.16
2017-08-24T00:17:48.277Z,9.2
2017-08-24T00:18:47.968Z,9.23
2017-08-24T00:19:48.460Z,9.23
2017-08-24T00:20:48.236Z,9.24
2017-08-24T00:21:47.934Z,9.19
2017-08-24T00:22:47.927Z,9.24
2017-08-24T00:23:47.915Z,9.26
2017-08-24T00:24:48.203Z,9.27
2017-08-24T00:25:48.405Z,9.23
2017-08-24T00:26:47.886Z,9.22
2017-08-24T00:27:47.868Z,9.22
2017-08-24T00:28:48.152Z,9.22
2017-08-24T00:29:47.843Z,9.16
2017-08-24T00:30:47.830Z,9.16
2017-08-24T00:31:47.830Z,9.16
2017-08-24T00:32:48.122Z,9.2
2017-08-24T00:33:48.111Z,9.23
2017-08-24T00:34:48.113Z,9.22
2017-08-24T00:35:48.095Z,9.24
2017-08-24T00:36:48.080Z,9.26
2017-08-24T00:37:48.082Z,9.12
2017-08-24T00:38:48.067Z,9.12
2017-08-24T00:39:48.053Z,9.15
2017-08-24T00:40:48.044Z,9.1
2017-08-24T00:41:48.035Z,9.12
2017-08-24T00:42:48.020Z,9.08
2017-08-24T00:43:48.014Z,9.15
2017-08-24T00:44:48.006Z,9.19
2017-08-24T00:45:47.989Z,9.12
2017-08-24T00:46:48.182Z,9.1
2017-08-24T00:47:47.972Z,9.13
2017-08-24T00:48:47.965Z,9.12
2017-08-24T00:49:47.960Z,9.16
2017-08-24T00:50:47.938Z,9.19
2017-08-24T00:51:48.041Z,9.1
2017-08-24T00:52:47.916Z,9.2
2017-08-24T00:53:47.906Z,9.27
2017-08-24T00:54:47.893Z,9.19
2017-08-24T00:55:47.894Z,9.17
2017-08-24T00:56:48.081Z,9.2
2017-08-24T00:57:47.866Z,9.06
2017-08-24T00:58:47.858Z,9.24
2017-08-24T00:59:47.849Z,9.22
2017-08-24T01:00:47.837Z,9.27
2017-08-24T01:01:47.814Z,9.22
2017-08-24T01:02:47.803Z,9.2
2017-08-24T01:03:47.802Z,9.31
2017-08-24T01:04:47.787Z,9.24
2017-08-24T01:05:47.792Z,9.22
2017-08-24T01:06:47.463Z,9.19
2017-08-24T01:07:47.751Z,9.2
2017-08-24T01:08:47.751Z,9.24
2017-08-24T01:09:47.742Z,9.24
2017-08-24T01:10:47.727Z,9.27
2017-08-24T01:11:47.722Z,9.23
2017-08-24T01:12:47.707Z,9.24
2017-08-24T01:13:47.699Z,9.26
2017-08-24T01:14:47.694Z,9.31
2017-08-24T01:15:47.666Z,9.23
2017-08-24T01:16:47.354Z,9.24
2017-08-24T01:17:47.662Z,9.2
2017-08-24T01:18:47.655Z,9.22
2017-08-24T01:19:47.627Z,9.22
2017-08-24T01:20:47.654Z,9.17
2017-08-24T01:21:47.621Z,9.23
2017-08-24T01:22:47.605Z,9.22
2017-08-24T01:23:47.486Z,9.24
2017-08-24T01:24:47.593Z,9.27
2017-08-24T01:25:47.575Z,9.27
2017-08-24T01:26:47.567Z,9.23
2017-08-24T01:27:47.547Z,9.24
2017-08-24T01:28:47.530Z,9.35
2017-08-24T01:29:47.740Z,9.26
2017-08-24T01:30:47.509Z,9.27
2017-08-24T01:31:47.535Z,9.26
2017-08-24T01:32:47.495Z,9.31
2017-08-24T01:33:47.685Z,9.22
2017-08-24T01:34:47.475Z,9.34
2017-08-24T01:35:47.459Z,9.27
2017-08-24T01:36:47.470Z,9.34
2017-08-24T01:37:47.456Z,9.23
2017-08-24T01:38:47.438Z,9.26
2017-08-24T01:39:47.127Z,9.26
2017-08-24T01:40:47.413Z,9.26
2017-08-24T01:41:47.396Z,9.26
2017-08-24T01:42:47.393Z,9.22
2017-08-24T01:43:47.381Z,9.37
2017-08-24T01:44:47.362Z,9.27
2017-08-24T01:45:47.368Z,9.27
2017-08-24T01:46:47.343Z,9.3
2017-08-24T01:47:47.338Z,9.37
2017-08-24T01:48:47.324Z,9.37
2017-08-24T01:49:47.017Z,9.27
2017-08-24T01:50:47.310Z,9.4
2017-08-24T01:51:46.992Z,9.24
2017-08-24T01:52:47.292Z,9.34
2017-08-24T01:53:47.285Z,9.4
2017-08-24T01:54:46.956Z,9.37
2017-08-24T01:55:46.951Z,9.37
2017-08-24T01:56:47.255Z,9.49
2017-08-24T01:57:47.230Z,9.37
2017-08-24T01:58:46.922Z,9.37
2017-08-24T01:59:46.911Z,9.38
2017-08-24T02:00:47.418Z,9.41
2017-08-24T02:01:47.203Z,9.35
2017-08-24T02:02:47.186Z,9.37
2017-08-24T02:03:47.182Z,9.41
2017-08-24T02:04:47.175Z,9.48
2017-08-24T02:05:47.166Z,9.52
2017-08-24T02:06:47.355Z,9.42
2017-08-24T02:07:47.125Z,9.34
2017-08-24T02:08:47.131Z,9.35
2017-08-24T02:09:47.123Z,9.37
2017-08-24T02:10:47.105Z,9.35
2017-08-24T02:11:47.083Z,9.37
2017-08-24T02:12:47.077Z,9.37
2017-08-24T02:13:47.074Z,9.41
2017-08-24T02:14:47.064Z,9.37
2017-08-24T02:15:47.044Z,9.42
2017-08-24T02:16:47.046Z,9.37
2017-08-24T02:17:47.055Z,9.4
2017-08-24T02:18:47.022Z,9.48
2017-08-24T02:19:47.018Z,9.44
2017-08-24T02:20:47.018Z,9.49
2017-08-24T02:21:46.992Z,9.52
2017-08-24T02:22:46.984Z,9.5
2017-08-24T02:23:46.964Z,9.4
2017-08-24T02:24:46.956Z,9.49
2017-08-24T02:25:46.950Z,9.45
2017-08-24T02:26:46.952Z,9.42
2017-08-24T02:27:46.932Z,9.44
2017-08-24T02:28:46.921Z,9.48
2017-08-24T02:29:46.911Z,9.44
2017-08-24T02:30:46.905Z,9.37
2017-08-24T02:31:46.893Z,9.5
2017-08-24T02:32:46.894Z,9.45
2017-08-24T02:33:46.864Z,9.5
2017-08-24T02:34:46.881Z,9.56
2017-08-24T02:35:46.859Z,9.56
2017-08-24T02:36:46.839Z,9.52
2017-08-24T02:37:47.047Z,9.59
2017-08-24T02:38:46.817Z,9.49
2017-08-24T02:39:46.818Z,9.55
2017-08-24T02:40:46.804Z,9.44
2017-08-24T02:41:46.493Z,9.5
2017-08-24T02:42:46.472Z,9.53
2017-08-24T02:43:46.985Z,9.5
2017-08-24T02:44:46.771Z,9.44
2017-08-24T02:45:46.753Z,9.52
2017-08-24T02:46:46.749Z,9.53
2017-08-24T02:47:46.739Z,9.52
2017-08-24T02:48:46.736Z,9.52
2017-08-24T02:49:46.725Z,9.59
2017-08-24T02:50:46.714Z,9.5
2017-08-24T02:51:46.390Z,9.49
2017-08-24T02:52:46.693Z,9.49
2017-08-24T02:53:46.674Z,9.52
2017-08-24T02:54:46.673Z,9.42
2017-08-24T02:55:46.664Z,9.49
2017-08-24T02:56:46.654Z,9.48
2017-08-24T02:57:46.643Z,9.5
2017-08-24T02:58:46.625Z,9.42
2017-08-24T02:59:46.628Z,9.45
2017-08-24T03:00:46.617Z,9.45
2017-08-24T03:01:46.306Z,9.55
2017-08-24T03:02:46.618Z,9.56
2017-08-24T03:03:46.583Z,9.55
2017-08-24T03:04:46.573Z,9.48
2017-08-24T03:05:46.567Z,9.5
2017-08-24T03:06:46.542Z,9.44
2017-08-24T03:07:46.544Z,9.48
2017-08-24T03:08:46.531Z,9.37
2017-08-24T03:09:46.521Z,9.48
2017-08-24T03:10:46.498Z,9.52
2017-08-24T03:11:46.508Z,9.45
2017-08-24T03:12:46.491Z,9.35
2017-08-24T03:13:46.180Z,9.38
2017-08-24T03:14:46.472Z,9.41
2017-08-24T03:15:46.459Z,9.35
2017-08-24T03:16:46.452Z,9.37
2017-08-24T03:17:46.436Z,9.38
2017-08-24T03:18:46.426Z,9.37
2017-08-24T03:19:46.422Z,9.38
2017-08-24T03:20:46.094Z,9.35
2017-08-24T03:21:46.398Z,9.48
2017-08-24T03:22:45.773Z,9.48
2017-08-24T03:23:46.377Z,9.41
2017-08-24T03:24:46.376Z,9.42
2017-08-24T03:25:46.356Z,9.44
2017-08-24T03:26:46.361Z,9.52
2017-08-24T03:27:46.337Z,9.48
2017-08-24T03:28:46.325Z,9.41
2017-08-24T03:29:46.322Z,9.48
2017-08-24T03:30:46.306Z,9.45
2017-08-24T03:31:46.298Z,9.44
2017-08-24T03:32:46.282Z,9.44
2017-08-24T03:33:46.276Z,9.48
2017-08-24T03:34:46.254Z,9.49
2017-08-24T03:35:46.247Z,9.45
2017-08-24T03:36:45.944Z,9.53
2017-08-24T03:37:46.243Z,9.55
2017-08-24T03:38:46.213Z,9.6
2017-08-24T03:39:46.240Z,9.58
2017-08-24T03:40:46.198Z,9.6
2017-08-24T03:41:46.200Z,9.62
2017-08-24T03:42:46.189Z,9.63
2017-08-24T03:43:45.910Z,9.6
2017-08-24T03:44:45.852Z,9.52
2017-08-24T03:45:46.149Z,9.59
2017-08-24T03:46:46.143Z,9.55
2017-08-24T03:47:46.126Z,9.53
2017-08-24T03:48:45.519Z,9.42
2017-08-24T03:49:46.142Z,9.48
2017-08-24T03:50:46.106Z,9.42
2017-08-24T03:51:46.098Z,9.45
2017-08-24T03:52:46.096Z,9.44
2017-08-24T03:53:46.072Z,9.48
2017-08-24T03:54:46.106Z,9.42
2017-08-24T03:55:46.062Z,9.48
2017-08-24T03:56:46.054Z,9.37
2017-08-24T03:57:46.041Z,9.44
2017-08-24T03:58:46.023Z,9.42
2017-08-24T03:59:46.019Z,9.45
2017-08-24T04:00:45.996Z,9.53
2017-08-24T04:01:46.002Z,9.5
2017-08-24T04:02:45.689Z,9.44
2017-08-24T04:03:45.975Z,9.35
2017-08-24T04:04:45.663Z,9.38
2017-08-24T04:05:45.647Z,9.42
2017-08-24T04:06:45.947Z,9.44
2017-08-24T04:07:45.930Z,9.45
2017-08-24T04:08:45.923Z,9.49
2017-08-24T04:09:45.926Z,9.4
2017-08-24T04:10:45.904Z,9.48
2017-08-24T04:11:45.291Z,9.44
2017-08-24T04:12:45.578Z,9.49
2017-08-24T04:13:45.871Z,9.5
2017-08-24T04:14:45.566Z,9.52
2017-08-24T04:15:45.853Z,9.42
2017-08-24T04:16:45.236Z,9.45
2017-08-24T04:17:45.540Z,9.5
2017-08-24T04:18:45.213Z,9.52
2017-08-24T04:19:45.812Z,9.52
2017-08-24T04:20:45.501Z,9.5
2017-08-24T04:21:45.800Z,9.48
2017-08-24T04:22:45.799Z,9.45
2017-08-24T04:23:45.773Z,9.45
2017-08-24T04:24:45.772Z,9.5
2017-08-24T04:25:45.442Z,9.45
2017-08-24T04:26:45.751Z,9.56
2017-08-24T04:27:45.729Z,9.56
2017-08-24T04:28:45.712Z,9.58
2017-08-24T04:29:45.705Z,9.67
2017-08-24T04:30:45.392Z,9.6
2017-08-24T04:31:45.695Z,9.63
2017-08-24T04:32:45.672Z,9.68
2017-08-24T04:33:45.677Z,9.6
2017-08-24T04:34:45.664Z,9.56
2017-08-24T04:35:45.649Z,9.65
2017-08-24T04:36:45.658Z,9.59
2017-08-24T04:37:45.629Z,9.6
2017-08-24T04:38:45.627Z,9.6
2017-08-24T04:39:45.615Z,9.62
2017-08-24T04:40:45.611Z,9.68
2017-08-24T04:41:45.593Z,9.6
2017-08-24T04:42:45.574Z,9.74
2017-08-24T04:43:45.273Z,9.65
2017-08-24T04:44:45.557Z,9.63
2017-08-24T04:45:45.555Z,9.65
2017-08-24T04:46:45.539Z,9.65
2017-08-24T04:47:45.528Z,9.63
2017-08-24T04:48:45.216Z,9.67
2017-08-24T04:49:45.506Z,9.68
2017-08-24T04:50:45.509Z,9.73
2017-08-24T04:51:45.184Z,9.62
2017-08-24T04:52:45.488Z,9.67
2017-08-24T04:53:45.468Z,9.63
2017-08-24T04:54:45.470Z,9.6
2017-08-24T04:55:45.443Z,9.6
2017-08-24T04:56:45.442Z,9.68
2017-08-24T04:57:45.423Z,9.65
2017-08-24T04:58:45.417Z,9.63
2017-08-24T04:59:45.399Z,9.62
2017-08-24T05:00:45.399Z,9.62
2017-08-24T05:01:45.396Z,9.58
2017-08-24T05:02:45.388Z,9.68
2017-08-24T05:03:45.063Z,9.65
2017-08-24T05:04:45.057Z,9.67
2017-08-24T05:05:45.344Z,9.7
2017-08-24T05:06:45.045Z,9.63
2017-08-24T05:07:45.324Z,9.67
2017-08-24T05:08:45.325Z,9.63
2017-08-24T05:09:45.008Z,9.71
2017-08-24T05:10:44.988Z,9.59
2017-08-24T05:11:45.289Z,9.73
2017-08-24T05:12:45.288Z,9.63
2017-08-24T05:13:44.968Z,9.62
2017-08-24T05:14:44.956Z,9.62
2017-08-24T05:15:45.244Z,9.65
2017-08-24T05:16:45.245Z,9.77
2017-08-24T05:17:45.240Z,9.73
2017-08-24T05:18:44.916Z,9.74
2017-08-24T05:19:45.209Z,9.78
2017-08-24T05:20:45.195Z,9.75
2017-08-24T05:21:45.182Z,9.78
2017-08-24T05:22:44.878Z,9.74
2017-08-24T05:23:45.189Z,9.74
2017-08-24T05:24:45.150Z,9.74
2017-08-24T05:25:45.155Z,9.77
2017-08-24T05:26:45.144Z,9.77
2017-08-24T05:27:45.125Z,9.86
2017-08-24T05:28:45.121Z,9.86
2017-08-24T05:29:45.102Z,9.92
2017-08-24T05:30:45.093Z,10.11
2017-08-24T05:31:44.793Z,10.2
2017-08-24T05:32:45.077Z,9.99
2017-08-24T05:33:45.079Z,9.99
2017-08-24T05:34:44.761Z,9.88
2017-08-24T05:35:45.052Z,9.96
2017-08-24T05:36:45.047Z,9.89
2017-08-24T05:37:45.034Z,9.89
2017-08-24T05:38:45.014Z,9.86
2017-08-24T05:39:45.012Z,9.93
2017-08-24T05:40:45.006Z,9.95
2017-08-24T05:41:45.004Z,10.06
2017-08-24T05:42:44.672Z,10.02
2017-08-24T05:43:44.361Z,9.96
2017-08-24T05:44:44.652Z,9.98
2017-08-24T05:45:44.948Z,10.16
2017-08-24T05:46:44.636Z,10.1
2017-08-24T05:47:44.930Z,10.17
2017-08-24T05:48:44.928Z,10.2
2017-08-24T05:49:44.611Z,10.47
2017-08-24T05:50:44.896Z,10.43
2017-08-24T05:51:44.898Z,10.52
2017-08-24T05:52:44.895Z,10.72
2017-08-24T05:53:44.587Z,10.91
2017-08-24T05:54:44.874Z,10.87
2017-08-24T05:55:44.857Z,10.68
2017-08-24T05:56:44.844Z,10.81
2017-08-24T05:57:44.848Z,10.87
2017-08-24T05:58:44.840Z,10.69
2017-08-24T05:59:44.829Z,10.68
2017-08-24T06:00:44.814Z,10.7
2017-08-24T06:01:44.801Z,10.91
2017-08-24T06:02:44.794Z,10.81
2017-08-24T06:03:44.784Z,10.9
2017-08-24T06:04:44.770Z,10.84
2017-08-24T06:05:44.467Z,10.9
2017-08-24T06:06:44.748Z,11.08
2017-08-24T06:07:44.439Z,11.06
2017-08-24T06:08:44.776Z,11.02
2017-08-24T06:09:44.738Z,11.09
2017-08-24T06:10:44.732Z,11.16
2017-08-24T06:11:44.709Z,11.17
2017-08-24T06:12:44.713Z,11.46
2017-08-24T06:13:44.695Z,11.77
2017-08-24T06:14:44.683Z,12.04
2017-08-24T06:15:44.664Z,12.4
2017-08-24T06:16:44.664Z,12.52
2017-08-24T06:17:44.349Z,12.38
2017-08-24T06:18:44.657Z,12.15
2017-08-24T06:19:44.331Z,12.19
2017-08-24T06:20:44.323Z,12.29
2017-08-24T06:21:44.625Z,12.38
2017-08-24T06:22:44.002Z,12.4
2017-08-24T06:23:44.604Z,12.52
2017-08-24T06:24:44.588Z,12.81
2017-08-24T06:25:44.610Z,13.01
2017-08-24T06:26:43.974Z,12.18
2017-08-24T06:27:44.265Z,12.05
2017-08-24T06:28:44.574Z,12.43
2017-08-24T06:29:44.565Z,12.52
2017-08-24T06:30:44.539Z,12.54
2017-08-24T06:31:44.238Z,12.79
2017-08-24T06:32:44.543Z,12.67
2017-08-24T06:33:44.527Z,12.91
2017-08-24T06:34:44.509Z,12.99
2017-08-24T06:35:44.498Z,12.95
2017-08-24T06:36:44.501Z,12.92
2017-08-24T06:37:43.883Z,13.32
2017-08-24T06:38:44.493Z,13.16
2017-08-24T06:39:44.486Z,13.06
2017-08-24T06:40:44.477Z,13.12
2017-08-24T06:41:44.457Z,12.88
2017-08-24T06:42:44.157Z,13.27
2017-08-24T06:43:44.443Z,13.36
2017-08-24T06:44:44.433Z,13.14
2017-08-24T06:45:44.444Z,12.87
2017-08-24T06:46:44.431Z,12.77
2017-08-24T06:47:44.421Z,12.49
2017-08-24T06:48:44.102Z,12.34
2017-08-24T06:49:44.402Z,12.51
2017-08-24T06:50:44.398Z,12.61
2017-08-24T06:51:44.391Z,12.61
2017-08-24T06:52:44.378Z,12.85
2017-08-24T06:53:44.371Z,12.67
2017-08-24T06:54:44.370Z,13.12
2017-08-24T06:55:44.055Z,13.46
2017-08-24T06:56:44.355Z,13.09
2017-08-24T06:57:44.348Z,13.41
2017-08-24T06:58:44.036Z,13.29
2017-08-24T06:59:44.031Z,13.46
2017-08-24T07:00:44.317Z,13.65
2017-08-24T07:01:44.301Z,13.76
2017-08-24T07:02:44.301Z,13.72
2017-08-24T07:03:44.297Z,12.71
2017-08-24T07:04:44.289Z,12.61
2017-08-24T07:05:44.273Z,12.41
2017-08-24T07:06:44.270Z,12.04
2017-08-24T07:07:44.275Z,12.03
2017-08-24T07:08:44.260Z,12.41
2017-08-24T07:09:44.255Z,12.61
2017-08-24T07:10:44.244Z,13.36
2017-08-24T07:11:44.233Z,13.76
2017-08-24T07:12:44.236Z,13.72
2017-08-24T07:13:44.230Z,13.44
2017-08-24T07:14:44.219Z,13.03
2017-08-24T07:15:44.223Z,12.41
2017-08-24T07:16:44.204Z,12.79
2017-08-24T07:17:44.186Z,13.38
2017-08-24T07:18:44.189Z,13.62
2017-08-24T07:19:44.183Z,13.63
2017-08-24T07:20:44.169Z,13.39
2017-08-24T07:21:44.171Z,13.72
2017-08-24T07:22:44.165Z,14.06
2017-08-24T07:23:43.848Z,14.26
2017-08-24T07:24:44.152Z,14.27
2017-08-24T07:25:43.830Z,14.05
2017-08-24T07:26:44.132Z,14.23
2017-08-24T07:27:44.118Z,14.12
2017-08-24T07:28:44.126Z,13.55
2017-08-24T07:29:44.105Z,13.03
2017-08-24T07:30:44.100Z,12.89
2017-08-24T07:31:43.795Z,13.36
2017-08-24T07:32:43.788Z,14.04
2017-08-24T07:33:44.093Z,14.16
2017-08-24T07:34:44.074Z,14.66
2017-08-24T07:35:44.079Z,14.78
2017-08-24T07:36:44.067Z,14.3
2017-08-24T07:37:44.061Z,14.29
2017-08-24T07:38:44.041Z,14.31
2017-08-24T07:39:44.045Z,14.34
2017-08-24T07:40:44.037Z,13.69
2017-08-24T07:41:44.031Z,13.68
2017-08-24T07:42:44.023Z,13.71
2017-08-24T07:43:44.061Z,13.54
2017-08-24T07:44:44.042Z,13.69
2017-08-24T07:45:44.004Z,13.86
2017-08-24T07:46:43.999Z,13.66
2017-08-24T07:47:43.989Z,13.65
2017-08-24T07:48:43.982Z,13.07
2017-08-24T07:49:43.681Z,12.8
2017-08-24T07:50:43.669Z,13.04
2017-08-24T07:51:43.992Z,13.14
2017-08-24T07:52:43.949Z,13.22
2017-08-24T07:53:43.943Z,13.48
2017-08-24T07:54:43.982Z,13.35
2017-08-24T07:55:43.943Z,13.91
2017-08-24T07:56:43.924Z,14.44
2017-08-24T07:57:43.920Z,14.41
2017-08-24T07:58:43.924Z,14.31
2017-08-24T07:59:43.907Z,14.69
2017-08-24T08:00:43.605Z,14.91
2017-08-24T08:01:43.926Z,15.05
2017-08-24T08:02:43.879Z,14.52
2017-08-24T08:03:43.874Z,14.31
2017-08-24T08:04:43.577Z,14.04
2017-08-24T08:05:43.875Z,14.13
2017-08-24T08:06:43.878Z,14.17
2017-08-24T08:07:43.864Z,13.93
2017-08-24T08:08:43.857Z,13.79
2017-08-24T08:09:43.841Z,13.21
2017-08-24T08:10:43.828Z,13.32
2017-08-24T08:11:43.521Z,14.02
2017-08-24T08:12:43.518Z,14.52
2017-08-24T08:13:43.513Z,15.22
2017-08-24T08:14:43.805Z,15.44
2017-08-24T08:15:43.813Z,15.53
2017-08-24T08:16:43.798Z,15.3
2017-08-24T08:17:43.795Z,15.25
2017-08-24T08:18:43.784Z,14.85
2017-08-24T08:19:43.782Z,14.53
2017-08-24T08:20:43.784Z,14.9
2017-08-24T08:21:43.767Z,14.85
2017-08-24T08:22:43.761Z,15.04
2017-08-24T08:23:43.751Z,15.07
2017-08-24T08:24:43.740Z,14.72
2017-08-24T08:25:43.754Z,14.48
2017-08-24T08:26:43.445Z,14.87
2017-08-24T08:30:15.520Z,15.37
2017-08-24T08:30:43.749Z,15.58
2017-08-24T08:31:43.707Z,15.13
2017-08-24T08:32:43.403Z,14.74
2017-08-24T08:33:43.705Z,14.93
2017-08-24T08:34:43.400Z,15.04
2017-08-24T08:35:43.677Z,14.29
2017-08-24T08:36:43.699Z,14.16
2017-08-24T08:37:43.662Z,13.98
2017-08-24T08:38:43.668Z,14.09
2017-08-24T08:39:43.663Z,14.74
2017-08-24T08:40:43.657Z,14.8
2017-08-24T08:41:43.662Z,15.04
2017-08-24T08:42:43.636Z,14.63
2017-08-24T08:43:43.639Z,14.64
2017-08-24T08:44:43.846Z,14.39
2017-08-24T08:45:43.311Z,14.04
2017-08-24T08:46:43.319Z,13.88
2017-08-24T08:47:42.994Z,13.91
2017-08-24T08:48:43.606Z,13.96
2017-08-24T08:49:42.973Z,13.8
2017-08-24T08:50:43.286Z,13.71
2017-08-24T08:51:43.579Z,13.79
2017-08-24T08:52:43.572Z,13.68
2017-08-24T08:53:43.569Z,13.53
2017-08-24T08:54:43.576Z,13.54
2017-08-24T08:55:43.259Z,14.06
2017-08-24T08:56:43.560Z,14.12
2017-08-24T08:57:43.555Z,13.66
2017-08-24T08:58:43.228Z,13.73
2017-08-24T08:59:43.538Z,14.12
2017-08-24T09:00:43.213Z,14.13
2017-08-24T09:01:43.221Z,14.05
2017-08-24T09:02:42.891Z,13.88
2017-08-24T09:03:43.195Z,13.65
2017-08-24T09:04:43.185Z,14.24
2017-08-24T09:05:43.191Z,14.08
2017-08-24T09:06:43.180Z,14.12
2017-08-24T09:07:43.177Z,14.52
2017-08-24T09:08:43.480Z,14.72
2017-08-24T09:09:43.466Z,15.07
2017-08-24T09:10:43.454Z,14.87
2017-08-24T09:11:43.138Z,14.61
2017-08-24T09:12:43.453Z,14.3
2017-08-24T09:13:43.134Z,14.8
2017-08-24T09:14:43.121Z,15.01
2017-08-24T09:15:43.438Z,14.66
2017-08-24T09:16:43.414Z,14.12
2017-08-24T09:17:43.102Z,14.36
2017-08-24T09:18:43.100Z,14.75
2017-08-24T09:19:43.393Z,14.49
2017-08-24T09:20:43.080Z,14.53
2017-08-24T09:21:43.389Z,14.49
2017-08-24T09:22:43.071Z,14.52
2017-08-24T09:23:43.074Z,14.12
2017-08-24T09:24:42.745Z,14.3
2017-08-24T09:25:43.058Z,14.24
2017-08-24T09:26:43.057Z,14.13
2017-08-24T09:27:43.361Z,13.79
2017-08-24T09:28:43.350Z,13.71
2017-08-24T09:29:42.722Z,13.71
2017-08-24T09:30:43.339Z,13.86
2017-08-24T09:31:43.330Z,14.57
2017-08-24T09:32:43.008Z,15.2
2017-08-24T09:33:43.307Z,15.35
2017-08-24T09:34:43.312Z,15.16
2017-08-24T09:35:43.301Z,15.74
2017-08-24T09:36:43.291Z,15.18
2017-08-24T09:37:43.293Z,15.43
2017-08-24T09:38:43.293Z,15.49
2017-08-24T09:39:43.278Z,15.56
2017-08-24T09:40:43.277Z,15.41
2017-08-24T09:41:42.950Z,15.27
2017-08-24T09:42:43.251Z,14.87
2017-08-24T09:43:42.939Z,14.94
2017-08-24T09:44:43.249Z,15.3
2017-08-24T09:45:43.243Z,15.64
2017-08-24T09:46:43.231Z,15.3
2017-08-24T09:47:43.224Z,14.91
2017-08-24T09:48:43.225Z,14.64
2017-08-24T09:49:42.901Z,15.07
2017-08-24T09:50:42.899Z,15.03
2017-08-24T09:51:42.895Z,15.66
2017-08-24T09:52:43.193Z,15.67
2017-08-24T09:53:42.931Z,15.13
2017-08-24T09:54:43.193Z,15.05
2017-08-24T09:55:43.176Z,14.82
2017-08-24T09:56:43.168Z,14.83
2017-08-24T09:57:43.160Z,15.16
2017-08-24T09:58:43.167Z,15.56
2017-08-24T09:59:42.847Z,15.23
2017-08-24T10:00:43.162Z,14.93
2017-08-24T10:01:43.154Z,15.16
2017-08-24T10:02:43.146Z,15.62
2017-08-24T10:03:43.130Z,15.53
2017-08-24T10:04:42.818Z,15.31
2017-08-24T10:05:42.815Z,14.95
2017-08-24T10:06:42.819Z,14.82
2017-08-24T10:07:42.794Z,14.71
2017-08-24T10:08:43.114Z,14.91
2017-08-24T10:09:43.101Z,14.34
2017-08-24T10:10:42.785Z,14.48
2017-08-24T10:11:42.783Z,15.01
2017-08-24T10:12:43.089Z,15.48
2017-08-24T10:13:42.761Z,15.58
2017-08-24T10:14:43.074Z,16.03
2017-08-24T10:15:42.756Z,15.96
2017-08-24T10:16:43.060Z,15.64
2017-08-24T10:17:43.046Z,16.17
2017-08-24T10:18:43.046Z,16.17
2017-08-24T10:19:43.054Z,16.6
2017-08-24T10:20:42.725Z,16.91
2017-08-24T10:21:43.028Z,16.88
2017-08-24T10:22:42.714Z,16.77
2017-08-24T10:23:43.022Z,16.11
2017-08-24T10:24:43.010Z,16.54
2017-08-24T10:25:43.015Z,16.78
2017-08-24T10:26:42.998Z,16.84
2017-08-24T10:27:43.006Z,16.85
2017-08-24T10:28:43.098Z,16.6
2017-08-24T10:29:43.150Z,16.11
2017-08-24T10:30:43.132Z,16.27
2017-08-24T10:31:43.105Z,16.29
2017-08-24T10:32:42.980Z,16.18
2017-08-24T10:33:42.971Z,16.72
2017-08-24T10:34:42.958Z,17.12
2017-08-24T10:35:42.999Z,17.58
2017-08-24T10:36:42.651Z,17.91
2017-08-24T10:37:42.953Z,16.92
2017-08-24T10:38:42.949Z,16.55
2017-08-24T10:39:42.944Z,16.96
2017-08-24T10:40:42.953Z,17.35
2017-08-24T10:41:42.939Z,17.1
2017-08-24T10:42:42.939Z,16.75
2017-08-24T10:43:42.959Z,16.54
2017-08-24T10:44:42.921Z,16.47
2017-08-24T10:45:42.605Z,16.1
2017-08-24T10:46:42.924Z,15.58
2017-08-24T10:47:42.903Z,15.22
2017-08-24T10:48:42.908Z,15.48
2017-08-24T10:49:42.577Z,15.85
2017-08-24T10:50:42.887Z,16.14
2017-08-24T10:51:42.885Z,16.77
2017-08-24T10:52:42.883Z,16.96
2017-08-24T10:53:42.880Z,17.07
2017-08-24T10:54:42.882Z,17.38
2017-08-24T10:55:42.879Z,17.45
2017-08-24T10:56:42.854Z,17.33
2017-08-24T10:57:42.866Z,17.53
2017-08-24T10:58:42.859Z,17.17
2017-08-24T10:59:42.537Z,16.72
2017-08-24T11:00:42.847Z,16.88
2017-08-24T11:01:42.843Z,16.95
2017-08-24T11:02:42.530Z,16.91
2017-08-24T11:03:42.827Z,17.18
2017-08-24T11:04:42.839Z,16.88
2017-08-24T11:05:42.813Z,16.63
2017-08-24T11:06:42.825Z,16.54
2017-08-24T11:07:42.818Z,16.6
2017-08-24T11:08:42.802Z,16.98
2017-08-24T11:09:42.807Z,16.98
2017-08-24T11:10:42.798Z,16.36
2017-08-24T11:11:42.516Z,15.96
2017-08-24T11:12:42.478Z,16.22
2017-08-24T11:13:42.788Z,16.3
2017-08-24T11:14:42.797Z,16.77
2017-08-24T11:15:42.784Z,17.07
2017-08-24T11:16:42.799Z,16.95
2017-08-24T11:17:42.778Z,16.5
2017-08-24T11:18:42.762Z,16.54
2017-08-24T11:19:42.760Z,16.7
2017-08-24T11:20:42.759Z,16.5
2017-08-24T11:21:42.752Z,16.57
2017-08-24T11:22:42.753Z,16.8
2017-08-24T11:23:42.732Z,16.75
2017-08-24T11:24:42.747Z,17.1
2017-08-24T11:25:42.738Z,17.54
2017-08-24T11:26:42.720Z,17.35
2017-08-24T11:27:42.723Z,17
2017-08-24T11:28:42.713Z,16.96
2017-08-24T11:29:42.721Z,16.07
2017-08-24T11:30:42.718Z,16.69
2017-08-24T11:31:42.392Z,16.54
2017-08-24T11:32:42.707Z,16.17
2017-08-24T11:33:42.386Z,16.29
2017-08-24T11:34:42.702Z,16.06
2017-08-24T11:35:42.697Z,16.29
2017-08-24T11:36:42.681Z,16.3
2017-08-24T11:37:42.369Z,16.18
2017-08-24T11:38:42.371Z,16.48
2017-08-24T11:39:42.369Z,16.18
2017-08-24T11:40:42.671Z,16.07
2017-08-24T11:41:42.666Z,16.48
2017-08-24T11:42:42.032Z,17.06
2017-08-24T11:43:42.652Z,17.53
2017-08-24T11:44:42.335Z,17.58
2017-08-24T11:45:42.718Z,17.95
2017-08-24T11:46:42.744Z,17.7
2017-08-24T11:47:42.632Z,17.33
2017-08-24T11:48:42.631Z,16.92
2017-08-24T11:49:42.623Z,17.36
2017-08-24T11:50:42.319Z,16.18
2017-08-24T11:51:42.619Z,16.22
2017-08-24T11:52:42.609Z,16.67
2017-08-24T11:53:42.616Z,17.28
2017-08-24T11:54:42.288Z,17.51
2017-08-24T11:55:42.601Z,16.9
2017-08-24T11:56:42.590Z,17.38
2017-08-24T11:57:42.591Z,17.36
2017-08-24T11:58:42.592Z,17.74
2017-08-24T11:59:42.581Z,17.73
2017-08-24T12:00:42.568Z,18.16
2017-08-24T12:01:42.585Z,18.1
2017-08-24T12:02:42.262Z,18.91
2017-08-24T12:03:42.571Z,19.21
2017-08-24T12:04:42.580Z,18.57
2017-08-24T12:05:42.558Z,19.13
2017-08-24T12:06:42.553Z,19.79
2017-08-24T12:07:42.551Z,19.27
2017-08-24T12:08:42.553Z,19.64
2017-08-24T12:09:42.546Z,19.78
2017-08-24T12:10:42.537Z,19.5
2017-08-24T12:11:42.528Z,20
2017-08-24T12:12:42.525Z,19.61
2017-08-24T12:13:42.528Z,19.39
2017-08-24T12:14:42.533Z,19.62
2017-08-24T12:15:42.529Z,20.19
2017-08-24T12:16:42.522Z,20.83
2017-08-24T12:17:42.520Z,20.34
2017-08-24T12:18:42.516Z,20.4
2017-08-24T12:19:42.520Z,20.04
2017-08-24T12:20:42.509Z,19.58
2017-08-24T12:21:42.509Z,18.91
2017-08-24T12:22:42.500Z,18.49
2017-08-24T12:23:42.502Z,18.41
2017-08-24T12:24:42.499Z,18.69
2017-08-24T12:25:42.521Z,18.25
2017-08-24T12:26:42.496Z,18.11
2017-08-24T12:27:42.496Z,18.38
2017-08-24T12:28:42.490Z,18.86
2017-08-24T12:29:42.483Z,19.58
2017-08-24T12:30:42.176Z,19.95
2017-08-24T12:31:42.489Z,20.31
2017-08-24T12:32:42.476Z,20.26
2017-08-24T12:33:42.474Z,20.54
2017-08-24T12:34:42.469Z,20.33
2017-08-24T12:35:42.474Z,20.51
2017-08-24T12:36:42.470Z,20.33
2017-08-24T12:37:42.157Z,20.22
2017-08-24T12:38:42.454Z,20.07
2017-08-24T12:39:42.465Z,19.9
2017-08-24T12:40:42.460Z,19.83
2017-08-24T12:41:42.456Z,19.67
2017-08-24T12:42:42.456Z,18.83
2017-08-24T12:43:42.438Z,18.28
2017-08-24T12:44:42.450Z,17.76
2017-08-24T12:45:42.131Z,17.24
2017-08-24T12:46:42.431Z,17.15
2017-08-24T12:47:42.427Z,17.05
2017-08-24T12:48:42.420Z,17.17
2017-08-24T12:49:42.433Z,17.89
2017-08-24T12:50:42.422Z,18.44
2017-08-24T12:51:42.414Z,18.99
2017-08-24T12:52:42.113Z,19.43
2017-08-24T12:53:42.101Z,19.42
2017-08-24T12:54:42.091Z,19.61
2017-08-24T12:55:42.396Z,19.89
2017-08-24T12:56:42.093Z,20.13
2017-08-24T12:57:42.399Z,20.26
2017-08-24T12:58:42.091Z,20.35
2017-08-24T12:59:42.387Z,20.04
2017-08-24T13:00:42.392Z,19.76
2017-08-24T13:01:42.376Z,18.91
2017-08-24T13:02:42.387Z,18.87
2017-08-24T13:03:42.377Z,18.9
2017-08-24T13:04:42.056Z,19.15
2017-08-24T13:05:42.396Z,19.01
2017-08-24T13:06:42.368Z,18.97
2017-08-24T13:07:42.354Z,18.64
2017-08-24T13:08:42.357Z,18.71